createdAt,value
2023-02-03T00:00:08.854Z,1.38
2023-02-03T00:02:40.028Z,1.48
2023-02-03T00:05:09.841Z,1.42
2023-02-03T00:07:39.612Z,1.38
2023-02-03T00:10:08.981Z,1.60
2023-02-03T00:12:37.529Z,1.52
2023-02-03T00:15:10.979Z,1.20
2023-02-03T00:17:39.255Z,1.30
2023-02-03T00:20:08.462Z,1.30
2023-02-03T00:22:36.748Z,1.40
2023-02-03T00:25:05.536Z,1.23
2023-02-03T00:27:33.918Z,1.20
2023-02-03T00:30:02.323Z,1.10
2023-02-03T00:32:32.389Z,1.23
2023-02-03T00:35:00.752Z,1.10
2023-02-03T00:37:29.170Z,1.35
2023-02-03T00:39:57.562Z,1.13
2023-02-03T00:42:25.777Z,1.10
2023-02-03T00:44:54.012Z,1.20
2023-02-03T00:47:23.704Z,1.20
2023-02-03T00:49:53.543Z,1.10
2023-02-03T00:52:21.801Z,1.10
2023-02-03T00:54:50.134Z,0.93
2023-02-03T00:57:18.430Z,1.10
2023-02-03T00:59:46.764Z,1.05
2023-02-03T01:02:16.853Z,1.02
2023-02-03T01:04:45.342Z,1.23
2023-02-03T01:07:15.065Z,0.85
2023-02-03T01:09:43.472Z,1.20
2023-02-03T01:12:12.621Z,1.10
2023-02-03T01:14:42.309Z,0.90
2023-02-03T01:17:10.608Z,1.20
2023-02-03T01:19:38.838Z,1.20
2023-02-03T01:22:07.091Z,1.15
2023-02-03T01:24:36.701Z,1.10
2023-02-03T01:27:06.752Z,1.10
2023-02-03T01:29:35.163Z,1.10
2023-02-03T01:32:03.529Z,1.00
2023-02-03T01:34:31.954Z,1.00
2023-02-03T01:37:00.725Z,1.20
2023-02-03T01:39:29.985Z,1.33
2023-02-03T01:41:59.623Z,1.38
2023-02-03T01:44:42.898Z,1.60
2023-02-03T01:47:25.621Z,1.10
2023-02-03T01:50:01.035Z,1.00
2023-02-03T01:52:30.171Z,0.90
2023-02-03T01:55:01.867Z,1.10
2023-02-03T01:57:35.804Z,0.90
2023-02-03T02:00:09.571Z,1.10
2023-02-03T02:02:47.084Z,1.10
2023-02-03T02:05:21.584Z,1.35
2023-02-03T02:07:50.994Z,0.93
2023-02-03T02:10:19.538Z,1.25
2023-02-03T02:12:50.747Z,1.17
2023-02-03T02:15:20.463Z,1.23
2023-02-03T02:18:03.688Z,1.00
2023-02-03T02:20:50.573Z,1.30
2023-02-03T02:23:47.568Z,1.40
2023-02-03T02:26:44.259Z,1.25
2023-02-03T02:29:44.347Z,1.00
2023-02-03T02:32:22.079Z,1.02
2023-02-03T02:35:00.464Z,1.00
2023-02-03T02:37:39.619Z,1.00
2023-02-03T02:40:16.986Z,1.00
2023-02-03T02:42:55.812Z,1.02
2023-02-03T02:45:28.265Z,1.00
2023-02-03T02:48:03.821Z,1.10
2023-02-03T02:50:38.620Z,0.90
2023-02-03T02:53:08.404Z,1.00
2023-02-03T02:55:41.940Z,0.93
2023-02-03T02:58:13.250Z,1.17
2023-02-03T03:00:42.782Z,0.90
2023-02-03T03:03:19.003Z,1.00
2023-02-03T03:05:52.428Z,1.08
2023-02-03T03:08:30.103Z,0.90
2023-02-03T03:10:59.611Z,1.55
2023-02-03T03:13:33.747Z,0.80
2023-02-03T03:16:05.262Z,1.13
2023-02-03T03:18:38.688Z,1.00
2023-02-03T03:21:09.038Z,1.02
2023-02-03T03:23:42.399Z,1.00
2023-02-03T03:26:14.873Z,0.90
2023-02-03T03:28:49.186Z,0.77
2023-02-03T03:31:19.120Z,1.00
2023-02-03T03:33:49.676Z,0.93
2023-02-03T03:36:25.768Z,0.98
2023-02-03T03:39:00.925Z,1.02
2023-02-03T03:41:39.247Z,0.90
2023-02-03T03:44:12.880Z,0.70
2023-02-03T03:46:46.349Z,0.85
2023-02-03T03:49:18.532Z,0.70
2023-02-03T03:51:51.034Z,0.80
2023-02-03T03:54:21.995Z,0.77
2023-02-03T03:56:55.908Z,1.20
2023-02-03T03:59:27.499Z,0.80
2023-02-03T04:04:27.139Z,0.70
2023-02-03T04:06:55.834Z,0.82
2023-02-03T04:09:24.421Z,0.90
2023-02-03T04:12:06.057Z,1.00
2023-02-03T04:17:03.803Z,0.63
2023-02-03T04:19:34.077Z,0.80
2023-02-03T04:22:02.415Z,0.77
2023-02-03T04:24:30.686Z,0.90
2023-02-03T04:26:58.902Z,0.80
2023-02-03T04:29:27.268Z,0.88
2023-02-03T04:31:55.597Z,0.70
2023-02-03T04:34:23.922Z,0.70
2023-02-03T04:36:53.559Z,0.93
2023-02-03T04:39:23.089Z,0.70
2023-02-03T04:41:51.360Z,0.73
2023-02-03T04:44:19.683Z,0.80
2023-02-03T04:46:47.898Z,1.10
2023-02-03T04:49:17.681Z,0.70
2023-02-03T04:51:46.142Z,0.93
2023-02-03T04:54:16.028Z,0.93
2023-02-03T04:56:44.403Z,0.65
2023-02-03T04:59:13.191Z,0.70
2023-02-03T05:01:41.513Z,0.80
2023-02-03T05:04:09.833Z,0.70
2023-02-03T05:06:38.330Z,0.90
2023-02-03T05:09:06.689Z,0.60
2023-02-03T05:11:38.367Z,0.85
2023-02-03T05:14:06.837Z,0.75
2023-02-03T05:16:35.174Z,0.75
2023-02-03T05:19:03.612Z,0.70
2023-02-03T05:21:31.844Z,0.70
2023-02-03T05:24:00.408Z,0.75
2023-02-03T05:26:28.602Z,0.90
2023-02-03T05:28:58.260Z,1.08
2023-02-03T05:31:26.560Z,0.90
2023-02-03T05:33:54.899Z,1.00
2023-02-03T05:36:23.164Z,0.85
2023-02-03T05:38:51.468Z,1.30
2023-02-03T05:41:37.426Z,1.10
2023-02-03T05:44:07.196Z,0.80
2023-02-03T05:46:35.494Z,0.80
2023-02-03T05:49:03.697Z,0.90
2023-02-03T05:51:31.945Z,0.73
2023-02-03T05:54:00.228Z,0.77
2023-02-03T05:56:28.550Z,0.60
2023-02-03T05:58:56.963Z,0.90
2023-02-03T06:01:26.621Z,0.63
2023-02-03T06:03:55.003Z,1.10
2023-02-03T06:06:23.381Z,0.77
2023-02-03T06:08:56.229Z,0.70
2023-02-03T06:11:25.457Z,0.90
2023-02-03T06:13:53.833Z,0.80
2023-02-03T06:16:24.858Z,0.77
2023-02-03T06:18:55.367Z,1.27
2023-02-03T06:21:23.765Z,1.08
2023-02-03T06:23:51.999Z,1.10
2023-02-03T06:26:20.316Z,0.93
2023-02-03T06:28:48.805Z,0.90
2023-02-03T06:31:17.254Z,1.02
2023-02-03T06:33:45.617Z,0.82
2023-02-03T06:36:15.336Z,0.98
2023-02-03T06:38:43.787Z,0.88
2023-02-03T06:41:12.029Z,0.80
2023-02-03T06:43:40.427Z,0.90
2023-02-03T06:46:08.700Z,1.30
2023-02-03T06:48:36.976Z,1.35
2023-02-03T06:51:05.693Z,0.90
2023-02-03T06:53:35.431Z,0.80
2023-02-03T06:56:03.645Z,1.77
2023-02-03T06:58:32.022Z,1.08
2023-02-03T07:01:00.338Z,0.90
2023-02-03T07:03:28.677Z,1.10
2023-02-03T07:05:56.962Z,0.80
2023-02-03T07:08:25.443Z,0.90
2023-02-03T07:10:56.794Z,0.90
2023-02-03T07:13:25.100Z,0.80
2023-02-03T07:15:53.605Z,0.90
2023-02-03T07:18:45.936Z,0.73
2023-02-03T07:21:13.369Z,0.80
2023-02-03T07:23:41.837Z,0.88
2023-02-03T07:26:12.049Z,0.82
2023-02-03T07:28:40.341Z,0.68
2023-02-03T07:31:10.497Z,0.70
2023-02-03T07:33:39.714Z,0.80
2023-02-03T07:36:09.073Z,0.63
2023-02-03T07:38:38.168Z,0.77
2023-02-03T07:41:06.631Z,0.65
2023-02-03T07:43:36.194Z,0.75
2023-02-03T07:46:04.913Z,0.70
2023-02-03T07:48:33.835Z,0.80
2023-02-03T07:51:02.232Z,0.73
2023-02-03T07:53:30.550Z,0.52
2023-02-03T07:56:01.472Z,0.70
2023-02-03T07:58:30.100Z,0.70
2023-02-03T08:01:00.079Z,0.75
2023-02-03T08:03:28.616Z,0.68
2023-02-03T08:05:56.859Z,0.80
2023-02-03T08:08:25.185Z,0.95
2023-02-03T08:10:55.896Z,0.70
2023-02-03T08:13:24.214Z,0.60
2023-02-03T08:15:52.662Z,1.00
2023-02-03T08:18:22.595Z,0.70
2023-02-03T08:20:51.100Z,1.20
2023-02-03T08:23:19.578Z,0.77
2023-02-03T08:25:52.557Z,0.70
2023-02-03T08:28:21.230Z,0.90
2023-02-03T08:30:49.696Z,1.00
2023-02-03T08:33:18.517Z,1.10
2023-02-03T08:35:50.355Z,1.50
2023-02-03T08:38:19.214Z,0.80
2023-02-03T08:40:47.486Z,1.02
2023-02-03T08:43:16.391Z,0.60
2023-02-03T08:45:44.941Z,0.60
2023-02-03T08:48:13.372Z,0.73
2023-02-03T08:50:44.533Z,0.90
2023-02-03T08:53:14.209Z,1.00
2023-02-03T08:55:42.434Z,0.52
2023-02-03T08:58:10.965Z,0.80
2023-02-03T09:00:39.345Z,0.60
2023-02-03T09:03:07.682Z,0.80
2023-02-03T09:05:36.327Z,0.90
2023-02-03T09:08:05.666Z,0.65
2023-02-03T09:10:35.498Z,0.68
2023-02-03T09:13:03.878Z,0.70
2023-02-03T09:15:32.223Z,0.63
2023-02-03T09:18:02.258Z,0.80
2023-02-03T09:20:32.172Z,0.85
2023-02-03T09:23:00.790Z,0.60
2023-02-03T09:25:29.140Z,0.70
2023-02-03T09:27:58.934Z,0.60
2023-02-03T09:30:27.701Z,0.85
2023-02-03T09:32:56.668Z,0.63
2023-02-03T09:35:26.920Z,0.73
2023-02-03T09:37:55.250Z,0.82
2023-02-03T09:40:29.591Z,0.70
2023-02-03T09:43:13.184Z,0.60
2023-02-03T09:45:41.546Z,0.70
2023-02-03T09:48:15.769Z,0.52
2023-02-03T09:50:47.095Z,0.60
2023-02-03T09:53:26.535Z,0.70
2023-02-03T09:55:56.105Z,0.73
2023-02-03T09:58:28.349Z,0.45
2023-02-03T10:01:00.382Z,0.63
2023-02-03T10:03:37.756Z,0.68
2023-02-03T10:06:13.902Z,0.60
2023-02-03T10:09:09.137Z,0.80
2023-02-03T10:11:53.089Z,0.70
2023-02-03T10:14:36.392Z,0.60
2023-02-03T10:17:19.793Z,0.60
2023-02-03T10:19:52.630Z,0.70
2023-02-03T10:22:25.875Z,0.70
2023-02-03T10:25:00.235Z,1.60
2023-02-03T10:27:31.087Z,0.90
2023-02-03T10:30:05.588Z,0.80
2023-02-03T10:32:36.021Z,0.70
2023-02-03T10:35:05.934Z,0.80
2023-02-03T10:37:43.370Z,0.77
2023-02-03T10:40:14.410Z,0.60
2023-02-03T10:43:02.023Z,0.60
2023-02-03T10:45:35.352Z,0.50
2023-02-03T10:48:05.409Z,0.60
2023-02-03T10:50:33.979Z,0.80
2023-02-03T10:53:24.242Z,0.60
2023-02-03T10:56:02.029Z,0.90
2023-02-03T10:58:33.443Z,0.80
2023-02-03T11:01:11.314Z,0.75
2023-02-03T11:03:42.417Z,0.80
2023-02-03T11:06:13.924Z,0.70
2023-02-03T11:11:15.801Z,0.70
2023-02-03T11:13:44.947Z,0.95
2023-02-03T11:16:20.793Z,0.85
2023-02-03T11:18:54.463Z,0.80
2023-02-03T11:21:25.148Z,1.02
2023-02-03T11:23:57.831Z,0.80
2023-02-03T11:26:29.123Z,0.60
2023-02-03T11:29:00.424Z,0.85
2023-02-03T11:31:33.003Z,0.73
2023-02-03T11:34:05.616Z,0.70
2023-02-03T11:36:36.037Z,1.10
2023-02-03T11:39:27.189Z,0.73
2023-02-03T11:41:56.206Z,0.90
2023-02-03T11:44:29.287Z,0.70
2023-02-03T11:47:03.602Z,0.70
2023-02-03T11:50:01.871Z,0.90
2023-02-03T11:52:52.897Z,0.65
2023-02-03T11:55:34.972Z,1.00
2023-02-03T11:58:24.310Z,0.57
2023-02-03T12:01:00.577Z,0.70
2023-02-03T12:03:58.020Z,0.60
2023-02-03T12:06:42.739Z,0.50
2023-02-03T12:09:24.067Z,0.52
2023-02-03T12:12:11.198Z,0.40
2023-02-03T12:14:53.839Z,0.55
2023-02-03T12:17:50.098Z,0.60
2023-02-03T12:20:40.567Z,0.60
2023-02-03T12:23:25.037Z,0.40
2023-02-03T12:26:04.982Z,0.50
2023-02-03T12:28:49.170Z,0.50
2023-02-03T12:31:27.546Z,0.60
2023-02-03T12:34:03.911Z,0.50
2023-02-03T12:36:41.667Z,0.70
2023-02-03T12:39:17.050Z,0.52
2023-02-03T12:41:50.788Z,0.68
2023-02-03T12:44:24.943Z,0.40
2023-02-03T12:47:02.005Z,0.50
2023-02-03T12:49:38.139Z,0.52
2023-02-03T12:52:19.464Z,0.52
2023-02-03T12:54:53.682Z,0.60
2023-02-03T12:57:26.255Z,0.60
2023-02-03T13:00:14.415Z,0.60
2023-02-03T13:02:51.469Z,0.50
2023-02-03T13:05:25.902Z,0.90
2023-02-03T13:08:02.947Z,0.70
2023-02-03T13:10:38.211Z,0.57
2023-02-03T13:13:09.257Z,0.55
2023-02-03T13:15:42.047Z,0.57
2023-02-03T13:18:20.276Z,0.93
2023-02-03T13:20:50.687Z,0.70
2023-02-03T13:23:24.183Z,0.60
2023-02-03T13:26:13.549Z,0.80
2023-02-03T13:29:03.854Z,0.70
2023-02-03T13:31:43.898Z,0.70
2023-02-03T13:34:24.852Z,0.73
2023-02-03T13:37:21.230Z,0.70
2023-02-03T13:40:06.835Z,0.60
2023-02-03T13:42:40.809Z,0.60
2023-02-03T13:45:15.800Z,0.80
2023-02-03T13:47:48.514Z,1.20
2023-02-03T13:50:23.690Z,1.10
2023-02-03T13:52:59.139Z,0.80
2023-02-03T13:55:41.093Z,0.80
2023-02-03T13:58:21.671Z,0.70
2023-02-03T14:01:06.239Z,0.75
2023-02-03T14:03:46.352Z,0.93
2023-02-03T14:07:00.175Z,0.65
2023-02-03T14:09:49.464Z,0.60
2023-02-03T14:12:22.725Z,0.93
2023-02-03T14:15:04.534Z,1.65
2023-02-03T14:18:07.240Z,0.55
2023-02-03T14:21:06.605Z,0.60
2023-02-03T14:24:00.751Z,0.55
2023-02-03T14:26:42.408Z,0.55
2023-02-03T14:29:26.389Z,0.50
2023-02-03T14:32:00.730Z,0.60
2023-02-03T14:34:38.026Z,0.50
2023-02-03T14:37:19.753Z,0.57
2023-02-03T14:42:47.273Z,0.50
2023-02-03T14:45:35.543Z,0.60
2023-02-03T14:48:20.714Z,0.52
2023-02-03T14:51:00.370Z,0.63
2023-02-03T14:53:54.902Z,0.50
2023-02-03T14:56:55.488Z,0.60
2023-02-03T14:59:27.089Z,0.43
2023-02-03T15:04:39.776Z,0.70
2023-02-03T15:07:08.156Z,0.80
2023-02-03T15:09:41.081Z,0.63
2023-02-03T15:12:19.472Z,0.60
2023-02-03T15:14:47.813Z,0.70
2023-02-03T15:17:23.895Z,0.68
2023-02-03T15:19:53.984Z,0.77
2023-02-03T15:22:24.595Z,0.70
2023-02-03T15:24:55.034Z,0.73
2023-02-03T15:27:25.029Z,0.80
2023-02-03T15:29:53.782Z,0.68
2023-02-03T15:32:29.221Z,0.60
2023-02-03T15:35:00.356Z,0.60
2023-02-03T15:37:32.738Z,0.57
2023-02-03T15:40:03.837Z,0.60
2023-02-03T15:42:38.045Z,0.70
2023-02-03T15:45:10.492Z,43.17
2023-02-03T15:47:42.818Z,50.60
2023-02-03T15:50:30.732Z,47.10
2023-02-03T15:53:04.840Z,59.15
2023-02-03T15:55:37.387Z,64.07
2023-02-03T15:58:06.528Z,31.05
2023-02-03T16:00:38.236Z,15.27
2023-02-03T16:03:16.232Z,16.63
2023-02-03T16:05:48.890Z,33.03
2023-02-03T16:08:37.516Z,40.08
2023-02-03T16:11:31.344Z,44.20
2023-02-03T16:14:01.568Z,16.98
2023-02-03T16:16:33.978Z,49.63
2023-02-03T16:19:05.213Z,25.63
2023-02-03T16:21:37.217Z,16.10
2023-02-03T16:24:07.198Z,12.57
2023-02-03T16:26:38.470Z,9.35
2023-02-03T16:29:32.658Z,5.63
2023-02-03T16:32:19.791Z,2.55
2023-02-03T16:35:05.341Z,1.65
2023-02-03T16:38:01.603Z,1.40
2023-02-03T16:40:47.361Z,1.25
2023-02-03T16:43:34.860Z,1.90
2023-02-03T16:46:20.863Z,1.30
2023-02-03T16:49:06.451Z,1.10
2023-02-03T16:51:40.146Z,1.20
2023-02-03T16:54:14.266Z,1.02
2023-02-03T16:56:42.721Z,0.88
2023-02-03T16:59:11.004Z,0.70
2023-02-03T17:01:39.684Z,0.77
2023-02-03T17:04:08.235Z,0.60
2023-02-03T17:06:38.864Z,1.33
2023-02-03T17:09:07.504Z,0.70
2023-02-03T17:11:37.339Z,0.68
2023-02-03T17:14:05.630Z,0.68
2023-02-03T17:16:33.903Z,0.80
2023-02-03T17:19:02.182Z,0.68
2023-02-03T17:21:31.566Z,0.57
2023-02-03T17:24:00.355Z,0.52
2023-02-03T17:26:28.762Z,0.80
2023-02-03T17:29:03.130Z,0.70
2023-02-03T17:31:32.697Z,0.70
2023-02-03T17:34:01.019Z,0.80
2023-02-03T17:36:29.449Z,0.50
2023-02-03T17:55:32.183Z,0.93
2023-02-03T17:58:00.569Z,0.60
2023-02-03T18:00:30.603Z,0.65
2023-02-03T18:02:59.181Z,0.60
2023-02-03T18:05:29.052Z,0.70
2023-02-03T18:08:00.831Z,0.63
2023-02-03T18:10:34.507Z,0.70
2023-02-03T18:13:04.673Z,0.68
2023-02-03T18:15:37.776Z,1.02
2023-02-03T18:18:06.150Z,0.73
2023-02-03T18:20:35.098Z,0.60
2023-02-03T18:23:03.396Z,0.63
2023-02-03T18:25:31.659Z,0.70
2023-02-03T18:28:00.026Z,0.70
2023-02-03T18:30:28.768Z,0.80
2023-02-03T18:33:01.696Z,0.60
2023-02-03T18:35:30.358Z,0.60
2023-02-03T18:37:58.660Z,0.73
2023-02-03T18:40:26.908Z,0.85
2023-02-03T18:42:56.389Z,0.60
2023-02-03T18:45:24.674Z,0.60
2023-02-03T18:47:52.900Z,0.80
2023-02-03T18:50:22.861Z,0.80
2023-02-03T18:52:54.558Z,0.70
2023-02-03T18:55:23.562Z,0.70
2023-02-03T18:57:51.907Z,0.60
2023-02-03T19:00:20.883Z,0.70
2023-02-03T19:02:50.349Z,0.63
2023-02-03T19:05:18.870Z,0.60
2023-02-03T19:07:48.570Z,0.90
2023-02-03T19:10:17.288Z,0.50
2023-02-03T19:12:45.575Z,0.80
2023-02-03T19:15:13.949Z,0.70
2023-02-03T19:17:42.264Z,0.80
2023-02-03T19:20:11.696Z,0.80
2023-02-03T19:22:40.253Z,0.55
2023-02-03T19:25:10.276Z,0.70
2023-02-03T19:27:38.874Z,0.75
2023-02-03T19:30:07.706Z,0.70
2023-02-03T19:32:35.967Z,0.63
2023-02-03T19:35:04.254Z,0.73
2023-02-03T19:37:32.630Z,0.73
2023-02-03T19:40:00.886Z,0.80
2023-02-03T19:42:30.557Z,0.57
2023-02-03T19:44:58.854Z,0.88
2023-02-03T19:47:27.090Z,0.60
2023-02-03T19:49:55.307Z,0.93
2023-02-03T19:52:23.756Z,0.70
2023-02-03T19:54:53.844Z,0.63
2023-02-03T19:57:22.681Z,0.70
2023-02-03T19:59:52.476Z,0.90
2023-02-03T20:02:21.157Z,0.80
2023-02-03T20:04:50.029Z,14.23
2023-02-03T20:07:18.882Z,30.25
2023-02-03T20:09:48.813Z,35.28
2023-02-03T20:12:17.098Z,40.65
2023-02-03T20:14:45.403Z,38.13
2023-02-03T20:17:14.991Z,20.90
2023-02-03T20:19:43.338Z,15.02
2023-02-03T20:22:11.692Z,33.10
2023-02-03T20:24:40.019Z,39.47
2023-02-03T20:27:08.293Z,34.53
2023-02-03T20:29:36.622Z,35.88
2023-02-03T20:32:07.185Z,38.25
2023-02-03T20:34:37.009Z,109.00
2023-02-03T20:37:06.723Z,72.97
2023-02-03T20:39:35.288Z,47.67
2023-02-03T20:42:03.549Z,27.17
2023-02-03T20:44:31.828Z,16.08
2023-02-03T20:47:00.032Z,10.38
2023-02-03T20:49:28.510Z,6.65
2023-02-03T20:51:58.113Z,3.80
2023-02-03T20:54:26.422Z,2.42
2023-02-03T20:56:54.681Z,1.92
2023-02-03T20:59:22.962Z,1.10
2023-02-03T21:01:51.510Z,1.05
2023-02-03T21:04:38.417Z,0.98
2023-02-03T21:07:14.829Z,0.80
2023-02-03T21:09:43.220Z,0.80
2023-02-03T21:12:13.310Z,0.75
2023-02-03T21:14:44.343Z,0.82
2023-02-03T21:17:20.356Z,0.80
2023-02-03T21:19:49.142Z,0.80
2023-02-03T21:22:22.276Z,0.80
2023-02-03T21:24:54.996Z,0.73
2023-02-03T21:27:28.764Z,0.80
2023-02-03T21:29:57.683Z,0.85
2023-02-03T21:32:29.456Z,0.77
2023-02-03T21:34:57.701Z,0.70
2023-02-03T21:37:41.427Z,0.82
2023-02-03T21:40:22.445Z,0.60
2023-02-03T21:42:50.755Z,0.95
2023-02-03T21:45:35.491Z,1.00
2023-02-03T21:48:29.702Z,0.60
2023-02-03T21:51:03.452Z,0.77
2023-02-03T21:53:36.064Z,0.60
2023-02-03T21:56:20.855Z,0.80
2023-02-03T21:58:51.530Z,0.60
2023-02-03T22:01:23.101Z,0.77
2023-02-03T22:03:52.681Z,0.55
2023-02-03T22:06:29.142Z,0.63
2023-02-03T22:08:59.720Z,0.68
2023-02-03T22:11:29.560Z,0.70
2023-02-03T22:13:58.014Z,0.52
2023-02-03T22:16:26.659Z,0.80
2023-02-03T22:18:55.012Z,0.63
2023-02-03T22:21:23.646Z,0.63
2023-02-03T22:23:51.894Z,0.70
2023-02-03T22:26:22.375Z,0.70
2023-02-03T22:28:50.700Z,0.68
2023-02-03T22:31:19.910Z,0.60
2023-02-03T22:33:48.718Z,0.60
2023-02-03T22:36:18.729Z,0.70
2023-02-03T22:38:47.050Z,0.50
2023-02-03T22:41:15.298Z,0.60
2023-02-03T22:43:44.924Z,0.70
2023-02-03T22:46:13.361Z,0.77
2023-02-03T22:48:41.639Z,0.80
2023-02-03T22:51:10.060Z,0.50
2023-02-03T22:53:39.518Z,0.50
2023-02-03T22:56:08.274Z,0.60
2023-02-03T22:58:36.544Z,0.68
2023-02-03T23:01:06.629Z,0.47
2023-02-03T23:03:35.067Z,0.65
2023-02-03T23:06:03.298Z,0.77
2023-02-03T23:08:31.777Z,0.65
2023-02-03T23:10:59.946Z,0.60
2023-02-03T23:13:28.792Z,0.70
2023-02-03T23:15:57.076Z,0.60
2023-02-03T23:18:27.087Z,0.70
2023-02-03T23:20:55.386Z,0.52
2023-02-03T23:23:23.695Z,0.60
2023-02-03T23:25:51.945Z,0.50
2023-02-03T23:28:20.415Z,0.60
2023-02-03T23:30:48.751Z,0.60
2023-02-03T23:33:17.011Z,0.65
2023-02-03T23:35:45.733Z,0.57
2023-02-03T23:38:14.778Z,0.68
2023-02-03T23:40:43.160Z,0.50
2023-02-03T23:43:11.480Z,0.57
2023-02-03T23:45:39.661Z,0.50
2023-02-03T23:48:08.218Z,0.60
2023-02-03T23:50:36.445Z,0.70
2023-02-03T23:53:06.185Z,0.70
2023-02-03T23:55:36.328Z,0.50
2023-02-03T23:58:05.794Z,0.43
